sensor_id;sensor_type;location;lat;lon;timestamp;P1;durP1;ratioP1;P2;durP2;ratioP2
43435;SDS011;36399;51.444;-2.018;2023-01-28T00:00:57;27.33;;;14.87;;
43435;SDS011;36399;51.444;-2.018;2023-01-28T00:03:24;27.33;;;15.60;;
43435;SDS011;36399;51.444;-2.018;2023-01-28T00:06:00;29.17;;;16.43;;
43435;SDS011;36399;51.444;-2.018;2023-01-28T00:08:41;33.70;;;17.80;;
43435;SDS011;36399;51.444;-2.018;2023-01-28T00:13:35;32.00;;;15.33;;
43435;SDS011;36399;51.444;-2.018;2023-01-28T00:16:02;33.80;;;18.67;;
43435;SDS011;36399;51.444;-2.018;2023-01-28T00:18:33;29.97;;;16.13;;
43435;SDS011;36399;51.444;-2.018;2023-01-28T00:21:06;29.93;;;15.30;;
43435;SDS011;36399;51.444;-2.018;2023-01-28T00:23:37;25.63;;;12.43;;
43435;SDS011;36399;51.444;-2.018;2023-01-28T00:26:06;25.13;;;12.17;;
43435;SDS011;36399;51.444;-2.018;2023-01-28T00:28:37;15.47;;;9.33;;
43435;SDS011;36399;51.444;-2.018;2023-01-28T00:31:09;18.87;;;9.57;;
43435;SDS011;36399;51.444;-2.018;2023-01-28T00:33:40;20.30;;;11.27;;
43435;SDS011;36399;51.444;-2.018;2023-01-28T00:36:07;19.43;;;11.47;;
43435;SDS011;36399;51.444;-2.018;2023-01-28T00:38:34;23.23;;;12.20;;
43435;SDS011;36399;51.444;-2.018;2023-01-28T00:41:09;23.43;;;13.20;;
43435;SDS011;36399;51.444;-2.018;2023-01-28T00:43:41;23.20;;;12.00;;
43435;SDS011;36399;51.444;-2.018;2023-01-28T00:46:09;31.80;;;14.50;;
43435;SDS011;36399;51.444;-2.018;2023-01-28T00:48:37;27.10;;;12.90;;
43435;SDS011;36399;51.444;-2.018;2023-01-28T00:51:05;25.70;;;14.20;;
43435;SDS011;36399;51.444;-2.018;2023-01-28T00:53:35;27.97;;;13.10;;
43435;SDS011;36399;51.444;-2.018;2023-01-28T00:56:03;26.70;;;13.80;;
43435;SDS011;36399;51.444;-2.018;2023-01-28T00:58:31;30.83;;;15.50;;
43435;SDS011;36399;51.444;-2.018;2023-01-28T01:03:53;25.13;;;14.63;;
43435;SDS011;36399;51.444;-2.018;2023-01-28T01:06:29;30.27;;;14.77;;
43435;SDS011;36399;51.444;-2.018;2023-01-28T01:09:01;24.17;;;13.48;;
43435;SDS011;36399;51.444;-2.018;2023-01-28T01:11:30;23.70;;;14.70;;
43435;SDS011;36399;51.444;-2.018;2023-01-28T01:13:57;27.53;;;15.30;;
43435;SDS011;36399;51.444;-2.018;2023-01-28T01:16:26;25.33;;;15.40;;
43435;SDS011;36399;51.444;-2.018;2023-01-28T01:18:54;30.53;;;14.63;;
43435;SDS011;36399;51.444;-2.018;2023-01-28T01:21:22;41.20;;;19.40;;
43435;SDS011;36399;51.444;-2.018;2023-01-28T01:23:54;33.37;;;19.47;;
43435;SDS011;36399;51.444;-2.018;2023-01-28T01:26:23;30.07;;;15.30;;
43435;SDS011;36399;51.444;-2.018;2023-01-28T01:28:54;23.23;;;13.80;;
43435;SDS011;36399;51.444;-2.018;2023-01-28T01:31:21;27.83;;;16.10;;
43435;SDS011;36399;51.444;-2.018;2023-01-28T01:33:48;28.50;;;16.70;;
43435;SDS011;36399;51.444;-2.018;2023-01-28T01:39:01;29.53;;;16.90;;
43435;SDS011;36399;51.444;-2.018;2023-01-28T01:41:30;33.20;;;17.47;;
43435;SDS011;36399;51.444;-2.018;2023-01-28T01:46:30;35.67;;;18.17;;
43435;SDS011;36399;51.444;-2.018;2023-01-28T01:49:11;32.83;;;18.13;;
43435;SDS011;36399;51.444;-2.018;2023-01-28T01:54:11;33.23;;;18.00;;
43435;SDS011;36399;51.444;-2.018;2023-01-28T01:56:39;27.97;;;17.20;;
43435;SDS011;36399;51.444;-2.018;2023-01-28T01:59:10;37.57;;;17.83;;
43435;SDS011;36399;51.444;-2.018;2023-01-28T02:01:40;34.70;;;18.60;;
43435;SDS011;36399;51.444;-2.018;2023-01-28T02:04:10;34.60;;;18.47;;
43435;SDS011;36399;51.444;-2.018;2023-01-28T02:06:47;31.07;;;17.20;;
43435;SDS011;36399;51.444;-2.018;2023-01-28T02:31:29;28.70;;;13.23;;
43435;SDS011;36399;51.444;-2.018;2023-01-28T02:37:12;23.43;;;12.97;;
43435;SDS011;36399;51.444;-2.018;2023-01-28T02:42:30;20.90;;;12.73;;
43435;SDS011;36399;51.444;-2.018;2023-01-28T02:47:40;24.10;;;12.53;;
43435;SDS011;36399;51.444;-2.018;2023-01-28T02:50:26;25.37;;;12.73;;
43435;SDS011;36399;51.444;-2.018;2023-01-28T02:53:22;25.30;;;15.17;;
43435;SDS011;36399;51.444;-2.018;2023-01-28T03:04:13;27.27;;;15.47;;
43435;SDS011;36399;51.444;-2.018;2023-01-28T03:09:27;24.97;;;13.10;;
43435;SDS011;36399;51.444;-2.018;2023-01-28T03:34:13;22.70;;;12.20;;
43435;SDS011;36399;51.444;-2.018;2023-01-28T03:36:58;25.90;;;14.50;;
43435;SDS011;36399;51.444;-2.018;2023-01-28T03:47:14;32.07;;;15.10;;
43435;SDS011;36399;51.444;-2.018;2023-01-28T03:49:42;25.50;;;14.47;;
43435;SDS011;36399;51.444;-2.018;2023-01-28T03:52:23;22.77;;;13.53;;
43435;SDS011;36399;51.444;-2.018;2023-01-28T03:54:52;20.83;;;13.30;;
43435;SDS011;36399;51.444;-2.018;2023-01-28T03:57:20;25.83;;;13.43;;
43435;SDS011;36399;51.444;-2.018;2023-01-28T04:02:23;28.00;;;13.30;;
43435;SDS011;36399;51.444;-2.018;2023-01-28T04:13:21;23.90;;;10.63;;
43435;SDS011;36399;51.444;-2.018;2023-01-28T04:31:43;19.60;;;10.00;;
43435;SDS011;36399;51.444;-2.018;2023-01-28T04:58:45;22.97;;;10.13;;
43435;SDS011;36399;51.444;-2.018;2023-01-28T05:01:11;18.83;;;10.63;;
43435;SDS011;36399;51.444;-2.018;2023-01-28T05:03:37;21.77;;;11.40;;
43435;SDS011;36399;51.444;-2.018;2023-01-28T05:06:03;22.27;;;10.83;;
43435;SDS011;36399;51.444;-2.018;2023-01-28T05:16:38;25.90;;;11.33;;
43435;SDS011;36399;51.444;-2.018;2023-01-28T05:19:04;22.13;;;11.20;;
43435;SDS011;36399;51.444;-2.018;2023-01-28T05:21:31;22.63;;;10.13;;
43435;SDS011;36399;51.444;-2.018;2023-01-28T05:38:04;25.17;;;11.40;;
43435;SDS011;36399;51.444;-2.018;2023-01-28T05:43:06;28.00;;;11.87;;
43435;SDS011;36399;51.444;-2.018;2023-01-28T05:50:47;25.37;;;10.97;;
43435;SDS011;36399;51.444;-2.018;2023-01-28T05:53:16;19.60;;;11.40;;
43435;SDS011;36399;51.444;-2.018;2023-01-28T05:58:21;23.17;;;12.33;;
43435;SDS011;36399;51.444;-2.018;2023-01-28T06:00:47;23.23;;;11.77;;
43435;SDS011;36399;51.444;-2.018;2023-01-28T06:03:14;18.50;;;10.37;;
43435;SDS011;36399;51.444;-2.018;2023-01-28T06:05:40;19.30;;;10.93;;
43435;SDS011;36399;51.444;-2.018;2023-01-28T06:08:06;21.47;;;11.47;;
43435;SDS011;36399;51.444;-2.018;2023-01-28T06:10:34;19.80;;;10.67;;
43435;SDS011;36399;51.444;-2.018;2023-01-28T06:15:36;18.33;;;11.20;;
43435;SDS011;36399;51.444;-2.018;2023-01-28T06:20:40;21.87;;;10.47;;
43435;SDS011;36399;51.444;-2.018;2023-01-28T06:42:26;21.43;;;10.70;;
43435;SDS011;36399;51.444;-2.018;2023-01-28T06:44:58;18.07;;;11.53;;
43435;SDS011;36399;51.444;-2.018;2023-01-28T06:47:24;21.70;;;10.63;;
43435;SDS011;36399;51.444;-2.018;2023-01-28T06:49:53;18.57;;;10.37;;
43435;SDS011;36399;51.444;-2.018;2023-01-28T06:52:20;18.57;;;11.03;;
43435;SDS011;36399;51.444;-2.018;2023-01-28T06:57:22;19.63;;;10.07;;
43435;SDS011;36399;51.444;-2.018;2023-01-28T06:59:48;17.67;;;10.17;;
43435;SDS011;36399;51.444;-2.018;2023-01-28T07:02:17;18.70;;;10.53;;
43435;SDS011;36399;51.444;-2.018;2023-01-28T07:15:09;21.67;;;10.30;;
43435;SDS011;36399;51.444;-2.018;2023-01-28T07:17:40;20.43;;;10.80;;
43435;SDS011;36399;51.444;-2.018;2023-01-28T09:16:39;21.63;;;11.80;;
43435;SDS011;36399;51.444;-2.018;2023-01-28T14:57:51;8.87;;;5.00;;
43435;SDS011;36399;51.444;-2.018;2023-01-28T15:00:23;12.87;;;6.00;;
43435;SDS011;36399;51.444;-2.018;2023-01-28T15:02:49;11.23;;;6.80;;
43435;SDS011;36399;51.444;-2.018;2023-01-28T15:05:22;10.57;;;5.53;;
43435;SDS011;36399;51.444;-2.018;2023-01-28T15:07:50;11.53;;;6.27;;
43435;SDS011;36399;51.444;-2.018;2023-01-28T15:10:20;12.77;;;6.60;;
43435;SDS011;36399;51.444;-2.018;2023-01-28T15:12:55;10.37;;;5.33;;
43435;SDS011;36399;51.444;-2.018;2023-01-28T15:15:37;11.63;;;5.07;;
43435;SDS011;36399;51.444;-2.018;2023-01-28T15:18:18;10.33;;;5.53;;
43435;SDS011;36399;51.444;-2.018;2023-01-28T15:20:51;9.10;;;5.68;;
43435;SDS011;36399;51.444;-2.018;2023-01-28T15:23:21;13.50;;;7.03;;
43435;SDS011;36399;51.444;-2.018;2023-01-28T15:26:03;14.33;;;7.83;;
43435;SDS011;36399;51.444;-2.018;2023-01-28T15:28:32;15.03;;;7.10;;
43435;SDS011;36399;51.444;-2.018;2023-01-28T15:31:00;13.63;;;7.43;;
43435;SDS011;36399;51.444;-2.018;2023-01-28T15:33:26;11.73;;;6.63;;
43435;SDS011;36399;51.444;-2.018;2023-01-28T15:35:53;14.77;;;7.47;;
43435;SDS011;36399;51.444;-2.018;2023-01-28T15:38:24;13.47;;;7.80;;
43435;SDS011;36399;51.444;-2.018;2023-01-28T15:40:56;13.10;;;6.77;;
43435;SDS011;36399;51.444;-2.018;2023-01-28T15:43:25;10.53;;;6.47;;
43435;SDS011;36399;51.444;-2.018;2023-01-28T15:45:53;16.77;;;8.00;;
43435;SDS011;36399;51.444;-2.018;2023-01-28T15:48:25;14.03;;;7.50;;
43435;SDS011;36399;51.444;-2.018;2023-01-28T15:53:25;11.80;;;6.87;;
43435;SDS011;36399;51.444;-2.018;2023-01-28T15:56:14;12.80;;;6.10;;
43435;SDS011;36399;51.444;-2.018;2023-01-28T15:58:41;11.13;;;6.50;;
43435;SDS011;36399;51.444;-2.018;2023-01-28T16:03:33;8.90;;;5.30;;
43435;SDS011;36399;51.444;-2.018;2023-01-28T16:06:02;11.30;;;6.40;;
43435;SDS011;36399;51.444;-2.018;2023-01-28T16:08:39;10.03;;;5.60;;
43435;SDS011;36399;51.444;-2.018;2023-01-28T16:11:10;8.57;;;5.07;;
43435;SDS011;36399;51.444;-2.018;2023-01-28T16:13:40;9.40;;;6.17;;
43435;SDS011;36399;51.444;-2.018;2023-01-28T16:16:08;8.97;;;5.20;;
43435;SDS011;36399;51.444;-2.018;2023-01-28T16:21:42;12.90;;;5.43;;
43435;SDS011;36399;51.444;-2.018;2023-01-28T16:24:24;9.60;;;5.73;;
43435;SDS011;36399;51.444;-2.018;2023-01-28T16:27:05;11.10;;;6.17;;
43435;SDS011;36399;51.444;-2.018;2023-01-28T16:29:43;13.73;;;5.67;;
43435;SDS011;36399;51.444;-2.018;2023-01-28T16:37:45;11.90;;;7.03;;
43435;SDS011;36399;51.444;-2.018;2023-01-28T16:40:13;12.17;;;6.37;;
43435;SDS011;36399;51.444;-2.018;2023-01-28T16:42:44;12.47;;;6.93;;
43435;SDS011;36399;51.444;-2.018;2023-01-28T16:45:13;12.17;;;6.50;;
43435;SDS011;36399;51.444;-2.018;2023-01-28T16:47:44;12.73;;;6.90;;
43435;SDS011;36399;51.444;-2.018;2023-01-28T16:50:11;12.03;;;6.27;;
43435;SDS011;36399;51.444;-2.018;2023-01-28T16:52:41;12.90;;;8.03;;
43435;SDS011;36399;51.444;-2.018;2023-01-28T16:55:12;11.47;;;7.77;;
43435;SDS011;36399;51.444;-2.018;2023-01-28T16:57:40;11.47;;;7.63;;
43435;SDS011;36399;51.444;-2.018;2023-01-28T17:00:07;14.23;;;7.67;;
43435;SDS011;36399;51.444;-2.018;2023-01-28T17:02:41;11.97;;;6.53;;
43435;SDS011;36399;51.444;-2.018;2023-01-28T17:05:08;16.53;;;6.97;;
43435;SDS011;36399;51.444;-2.018;2023-01-28T17:07:36;13.23;;;7.87;;
43435;SDS011;36399;51.444;-2.018;2023-01-28T17:10:02;10.50;;;6.40;;
43435;SDS011;36399;51.444;-2.018;2023-01-28T17:12:29;13.03;;;6.87;;
43435;SDS011;36399;51.444;-2.018;2023-01-28T17:14:55;15.07;;;7.77;;
43435;SDS011;36399;51.444;-2.018;2023-01-28T17:17:20;14.83;;;8.03;;
43435;SDS011;36399;51.444;-2.018;2023-01-28T17:19:46;16.33;;;8.50;;
43435;SDS011;36399;51.444;-2.018;2023-01-28T17:22:12;16.50;;;8.17;;
43435;SDS011;36399;51.444;-2.018;2023-01-28T17:24:38;15.13;;;9.30;;
43435;SDS011;36399;51.444;-2.018;2023-01-28T17:27:04;14.90;;;7.90;;
43435;SDS011;36399;51.444;-2.018;2023-01-28T17:29:31;18.60;;;9.43;;
43435;SDS011;36399;51.444;-2.018;2023-01-28T17:31:57;12.47;;;8.03;;
43435;SDS011;36399;51.444;-2.018;2023-01-28T17:34:23;14.77;;;8.07;;
43435;SDS011;36399;51.444;-2.018;2023-01-28T17:36:50;13.77;;;8.10;;
43435;SDS011;36399;51.444;-2.018;2023-01-28T17:39:16;15.40;;;8.40;;
43435;SDS011;36399;51.444;-2.018;2023-01-28T17:41:41;14.13;;;7.80;;
43435;SDS011;36399;51.444;-2.018;2023-01-28T17:44:11;16.77;;;8.20;;
43435;SDS011;36399;51.444;-2.018;2023-01-28T17:46:39;16.77;;;9.77;;
43435;SDS011;36399;51.444;-2.018;2023-01-28T17:49:05;15.43;;;8.77;;
43435;SDS011;36399;51.444;-2.018;2023-01-28T17:51:31;16.40;;;8.80;;
43435;SDS011;36399;51.444;-2.018;2023-01-28T17:53:57;17.03;;;8.10;;
43435;SDS011;36399;51.444;-2.018;2023-01-28T17:56:24;14.70;;;8.53;;
43435;SDS011;36399;51.444;-2.018;2023-01-28T17:58:52;14.50;;;7.57;;
43435;SDS011;36399;51.444;-2.018;2023-01-28T18:01:19;12.93;;;6.50;;
43435;SDS011;36399;51.444;-2.018;2023-01-28T18:03:46;17.43;;;8.80;;
43435;SDS011;36399;51.444;-2.018;2023-01-28T18:06:12;16.40;;;9.10;;
43435;SDS011;36399;51.444;-2.018;2023-01-28T18:08:38;13.87;;;8.53;;
43435;SDS011;36399;51.444;-2.018;2023-01-28T18:11:08;20.17;;;11.63;;
43435;SDS011;36399;51.444;-2.018;2023-01-28T18:13:35;20.53;;;11.30;;
43435;SDS011;36399;51.444;-2.018;2023-01-28T18:16:03;18.47;;;12.37;;
43435;SDS011;36399;51.444;-2.018;2023-01-28T18:18:30;15.50;;;10.27;;
43435;SDS011;36399;51.444;-2.018;2023-01-28T18:20:57;16.83;;;8.67;;
43435;SDS011;36399;51.444;-2.018;2023-01-28T18:23:27;16.13;;;9.20;;
43435;SDS011;36399;51.444;-2.018;2023-01-28T18:25:59;16.33;;;8.77;;
43435;SDS011;36399;51.444;-2.018;2023-01-28T18:28:28;16.93;;;8.43;;
43435;SDS011;36399;51.444;-2.018;2023-01-28T18:30:53;13.90;;;8.80;;
43435;SDS011;36399;51.444;-2.018;2023-01-28T18:33:21;14.87;;;8.63;;
43435;SDS011;36399;51.444;-2.018;2023-01-28T18:35:48;14.77;;;9.03;;
43435;SDS011;36399;51.444;-2.018;2023-01-28T18:38:14;17.07;;;9.40;;
43435;SDS011;36399;51.444;-2.018;2023-01-28T18:40:43;18.40;;;10.03;;
43435;SDS011;36399;51.444;-2.018;2023-01-28T18:43:10;22.27;;;10.20;;
43435;SDS011;36399;51.444;-2.018;2023-01-28T18:45:37;21.10;;;12.80;;
43435;SDS011;36399;51.444;-2.018;2023-01-28T18:48:04;22.10;;;11.83;;
43435;SDS011;36399;51.444;-2.018;2023-01-28T18:50:30;19.13;;;11.83;;
43435;SDS011;36399;51.444;-2.018;2023-01-28T18:52:56;19.67;;;12.53;;
43435;SDS011;36399;51.444;-2.018;2023-01-28T18:55:22;20.67;;;12.63;;
43435;SDS011;36399;51.444;-2.018;2023-01-28T18:57:48;19.20;;;11.07;;
43435;SDS011;36399;51.444;-2.018;2023-01-28T19:00:17;17.50;;;10.33;;
43435;SDS011;36399;51.444;-2.018;2023-01-28T19:02:43;19.40;;;11.23;;
43435;SDS011;36399;51.444;-2.018;2023-01-28T19:05:09;20.10;;;12.70;;
43435;SDS011;36399;51.444;-2.018;2023-01-28T19:07:35;18.40;;;13.07;;
43435;SDS011;36399;51.444;-2.018;2023-01-28T19:10:01;23.87;;;12.10;;
43435;SDS011;36399;51.444;-2.018;2023-01-28T19:12:28;22.70;;;12.77;;
43435;SDS011;36399;51.444;-2.018;2023-01-28T19:14:55;24.60;;;12.97;;
43435;SDS011;36399;51.444;-2.018;2023-01-28T19:17:22;23.27;;;12.63;;
43435;SDS011;36399;51.444;-2.018;2023-01-28T19:19:48;23.40;;;11.80;;
43435;SDS011;36399;51.444;-2.018;2023-01-28T19:22:15;20.17;;;11.93;;
43435;SDS011;36399;51.444;-2.018;2023-01-28T19:24:42;19.70;;;11.93;;
43435;SDS011;36399;51.444;-2.018;2023-01-28T19:27:08;25.17;;;12.27;;
43435;SDS011;36399;51.444;-2.018;2023-01-28T19:29:34;16.50;;;11.07;;
43435;SDS011;36399;51.444;-2.018;2023-01-28T19:32:00;22.97;;;12.93;;
43435;SDS011;36399;51.444;-2.018;2023-01-28T19:34:26;19.70;;;12.47;;
43435;SDS011;36399;51.444;-2.018;2023-01-28T19:36:52;19.53;;;12.47;;
43435;SDS011;36399;51.444;-2.018;2023-01-28T19:39:18;24.30;;;12.20;;
43435;SDS011;36399;51.444;-2.018;2023-01-28T19:41:44;23.20;;;12.60;;
43435;SDS011;36399;51.444;-2.018;2023-01-28T19:44:10;23.77;;;13.97;;
43435;SDS011;36399;51.444;-2.018;2023-01-28T19:46:36;26.70;;;17.70;;
43435;SDS011;36399;51.444;-2.018;2023-01-28T19:49:02;26.50;;;16.47;;
43435;SDS011;36399;51.444;-2.018;2023-01-28T19:51:28;25.73;;;15.90;;
43435;SDS011;36399;51.444;-2.018;2023-01-28T19:53:54;23.23;;;14.67;;
43435;SDS011;36399;51.444;-2.018;2023-01-28T19:56:21;23.70;;;13.67;;
43435;SDS011;36399;51.444;-2.018;2023-01-28T19:58:49;26.13;;;13.73;;
43435;SDS011;36399;51.444;-2.018;2023-01-28T20:01:17;25.43;;;12.77;;
43435;SDS011;36399;51.444;-2.018;2023-01-28T20:03:48;20.70;;;13.90;;
43435;SDS011;36399;51.444;-2.018;2023-01-28T20:06:15;22.07;;;13.53;;
43435;SDS011;36399;51.444;-2.018;2023-01-28T20:08:42;23.67;;;13.37;;
43435;SDS011;36399;51.444;-2.018;2023-01-28T20:11:13;23.97;;;13.00;;
43435;SDS011;36399;51.444;-2.018;2023-01-28T20:13:41;22.63;;;13.20;;
43435;SDS011;36399;51.444;-2.018;2023-01-28T20:16:09;22.60;;;12.70;;
43435;SDS011;36399;51.444;-2.018;2023-01-28T20:18:42;23.37;;;12.77;;
43435;SDS011;36399;51.444;-2.018;2023-01-28T20:21:08;23.80;;;12.93;;
43435;SDS011;36399;51.444;-2.018;2023-01-28T20:23:34;23.00;;;13.40;;
43435;SDS011;36399;51.444;-2.018;2023-01-28T20:26:00;20.10;;;11.90;;
43435;SDS011;36399;51.444;-2.018;2023-01-28T20:28:26;21.27;;;12.60;;
43435;SDS011;36399;51.444;-2.018;2023-01-28T20:30:52;22.00;;;12.90;;
43435;SDS011;36399;51.444;-2.018;2023-01-28T20:33:18;24.47;;;14.57;;
43435;SDS011;36399;51.444;-2.018;2023-01-28T20:35:45;24.67;;;14.27;;
43435;SDS011;36399;51.444;-2.018;2023-01-28T20:38:12;25.77;;;14.13;;
43435;SDS011;36399;51.444;-2.018;2023-01-28T20:40:39;26.87;;;16.40;;
43435;SDS011;36399;51.444;-2.018;2023-01-28T20:43:07;26.27;;;17.27;;
43435;SDS011;36399;51.444;-2.018;2023-01-28T20:45:33;31.80;;;19.47;;
43435;SDS011;36399;51.444;-2.018;2023-01-28T20:48:00;38.77;;;18.33;;
43435;SDS011;36399;51.444;-2.018;2023-01-28T20:50:25;28.60;;;16.30;;
43435;SDS011;36399;51.444;-2.018;2023-01-28T20:52:51;34.20;;;20.83;;
43435;SDS011;36399;51.444;-2.018;2023-01-28T20:55:17;31.30;;;17.97;;
43435;SDS011;36399;51.444;-2.018;2023-01-28T20:57:43;29.50;;;18.20;;
43435;SDS011;36399;51.444;-2.018;2023-01-28T21:00:10;27.03;;;18.13;;
43435;SDS011;36399;51.444;-2.018;2023-01-28T21:02:38;24.93;;;15.20;;
43435;SDS011;36399;51.444;-2.018;2023-01-28T21:05:04;29.70;;;16.30;;
43435;SDS011;36399;51.444;-2.018;2023-01-28T21:07:31;23.23;;;15.70;;
43435;SDS011;36399;51.444;-2.018;2023-01-28T21:09:57;23.63;;;14.73;;
43435;SDS011;36399;51.444;-2.018;2023-01-28T21:12:23;30.17;;;15.20;;
43435;SDS011;36399;51.444;-2.018;2023-01-28T21:14:49;26.33;;;14.77;;
43435;SDS011;36399;51.444;-2.018;2023-01-28T21:17:15;23.83;;;13.43;;
43435;SDS011;36399;51.444;-2.018;2023-01-28T21:19:41;24.87;;;13.73;;
43435;SDS011;36399;51.444;-2.018;2023-01-28T21:22:07;24.97;;;14.90;;
43435;SDS011;36399;51.444;-2.018;2023-01-28T21:24:33;24.00;;;14.77;;
43435;SDS011;36399;51.444;-2.018;2023-01-28T21:26:59;23.13;;;14.33;;
43435;SDS011;36399;51.444;-2.018;2023-01-28T21:29:25;28.90;;;15.20;;
43435;SDS011;36399;51.444;-2.018;2023-01-28T21:31:51;25.77;;;16.37;;
43435;SDS011;36399;51.444;-2.018;2023-01-28T21:34:17;25.50;;;13.93;;
43435;SDS011;36399;51.444;-2.018;2023-01-28T21:36:43;25.13;;;14.17;;
43435;SDS011;36399;51.444;-2.018;2023-01-28T21:39:09;27.33;;;14.57;;
43435;SDS011;36399;51.444;-2.018;2023-01-28T21:41:35;23.03;;;13.57;;
43435;SDS011;36399;51.444;-2.018;2023-01-28T21:44:01;21.00;;;14.20;;
43435;SDS011;36399;51.444;-2.018;2023-01-28T21:46:28;22.70;;;14.33;;
43435;SDS011;36399;51.444;-2.018;2023-01-28T21:48:59;23.40;;;13.70;;
43435;SDS011;36399;51.444;-2.018;2023-01-28T21:51:26;24.40;;;15.17;;
43435;SDS011;36399;51.444;-2.018;2023-01-28T21:56:38;26.30;;;15.07;;
43435;SDS011;36399;51.444;-2.018;2023-01-28T21:59:04;24.70;;;14.87;;
43435;SDS011;36399;51.444;-2.018;2023-01-28T22:01:48;26.07;;;15.13;;
43435;SDS011;36399;51.444;-2.018;2023-01-28T22:04:14;24.97;;;15.03;;
43435;SDS011;36399;51.444;-2.018;2023-01-28T22:06:41;28.50;;;16.63;;
43435;SDS011;36399;51.444;-2.018;2023-01-28T22:09:08;26.50;;;16.47;;
43435;SDS011;36399;51.444;-2.018;2023-01-28T22:11:41;25.30;;;16.13;;
43435;SDS011;36399;51.444;-2.018;2023-01-28T22:14:09;27.97;;;16.40;;
43435;SDS011;36399;51.444;-2.018;2023-01-28T22:16:35;23.50;;;16.23;;
43435;SDS011;36399;51.444;-2.018;2023-01-28T22:19:01;25.93;;;15.03;;
43435;SDS011;36399;51.444;-2.018;2023-01-28T22:21:27;29.40;;;16.43;;
43435;SDS011;36399;51.444;-2.018;2023-01-28T22:23:53;28.20;;;15.83;;
43435;SDS011;36399;51.444;-2.018;2023-01-28T22:26:19;29.07;;;15.23;;
43435;SDS011;36399;51.444;-2.018;2023-01-28T22:28:45;21.73;;;13.73;;
43435;SDS011;36399;51.444;-2.018;2023-01-28T22:31:13;22.73;;;14.50;;
43435;SDS011;36399;51.444;-2.018;2023-01-28T22:33:41;27.30;;;16.37;;
43435;SDS011;36399;51.444;-2.018;2023-01-28T22:36:08;26.53;;;15.83;;
43435;SDS011;36399;51.444;-2.018;2023-01-28T22:38:37;30.97;;;16.70;;
43435;SDS011;36399;51.444;-2.018;2023-01-28T22:41:07;32.90;;;16.53;;
43435;SDS011;36399;51.444;-2.018;2023-01-28T22:43:35;27.63;;;16.83;;
43435;SDS011;36399;51.444;-2.018;2023-01-28T22:46:01;32.40;;;16.10;;
43435;SDS011;36399;51.444;-2.018;2023-01-28T22:48:28;30.00;;;17.23;;
43435;SDS011;36399;51.444;-2.018;2023-01-28T22:50:59;33.37;;;17.47;;
43435;SDS011;36399;51.444;-2.018;2023-01-28T22:53:29;27.27;;;17.37;;
43435;SDS011;36399;51.444;-2.018;2023-01-28T22:55:56;28.57;;;16.60;;
43435;SDS011;36399;51.444;-2.018;2023-01-28T22:58:22;28.53;;;15.47;;
43435;SDS011;36399;51.444;-2.018;2023-01-28T23:00:48;27.87;;;16.27;;
43435;SDS011;36399;51.444;-2.018;2023-01-28T23:03:14;29.70;;;15.70;;
43435;SDS011;36399;51.444;-2.018;2023-01-28T23:05:40;27.60;;;16.43;;
43435;SDS011;36399;51.444;-2.018;2023-01-28T23:08:06;25.93;;;16.50;;
43435;SDS011;36399;51.444;-2.018;2023-01-28T23:10:36;27.83;;;15.27;;
43435;SDS011;36399;51.444;-2.018;2023-01-28T23:13:05;28.50;;;16.90;;
43435;SDS011;36399;51.444;-2.018;2023-01-28T23:15:32;30.07;;;16.07;;
43435;SDS011;36399;51.444;-2.018;2023-01-28T23:18:18;29.70;;;16.00;;
43435;SDS011;36399;51.444;-2.018;2023-01-28T23:21:13;28.50;;;15.97;;
43435;SDS011;36399;51.444;-2.018;2023-01-28T23:24:12;29.20;;;14.90;;
43435;SDS011;36399;51.444;-2.018;2023-01-28T23:26:52;25.63;;;15.23;;
43435;SDS011;36399;51.444;-2.018;2023-01-28T23:29:21;25.50;;;16.23;;
43435;SDS011;36399;51.444;-2.018;2023-01-28T23:32:12;27.57;;;15.33;;
43435;SDS011;36399;51.444;-2.018;2023-01-28T23:34:39;31.40;;;17.27;;
43435;SDS011;36399;51.444;-2.018;2023-01-28T23:37:06;22.23;;;14.87;;
43435;SDS011;36399;51.444;-2.018;2023-01-28T23:39:34;29.90;;;16.37;;
43435;SDS011;36399;51.444;-2.018;2023-01-28T23:42:13;30.57;;;15.60;;
43435;SDS011;36399;51.444;-2.018;2023-01-28T23:44:41;28.27;;;15.73;;
43435;SDS011;36399;51.444;-2.018;2023-01-28T23:47:07;29.27;;;16.20;;
43435;SDS011;36399;51.444;-2.018;2023-01-28T23:49:33;26.27;;;16.03;;
43435;SDS011;36399;51.444;-2.018;2023-01-28T23:52:00;26.70;;;14.73;;
43435;SDS011;36399;51.444;-2.018;2023-01-28T23:54:27;25.83;;;14.90;;
43435;SDS011;36399;51.444;-2.018;2023-01-28T23:56:53;26.17;;;15.40;;
43435;SDS011;36399;51.444;-2.018;2023-01-28T23:59:19;22.67;;;14.93;;
